sensor_id;sensor_type;location;lat;lon;timestamp;pressure;altitude;pressure_sealevel;temperature;humidity
21960;BME280;11144;43.030;25.108;2023-09-30T00:00:57;99784.50;;;13.72;61.81
21960;BME280;11144;43.030;25.108;2023-09-30T00:02:30;99790.97;;;13.69;61.61
21960;BME280;11144;43.030;25.108;2023-09-30T00:04:03;99798.44;;;13.66;61.87
21960;BME280;11144;43.030;25.108;2023-09-30T00:05:37;99794.34;;;13.63;62.48
21960;BME280;11144;43.030;25.108;2023-09-30T00:07:11;99797.63;;;13.65;61.86
21960;BME280;11144;43.030;25.108;2023-09-30T00:08:44;99787.28;;;13.64;62.36
21960;BME280;11144;43.030;25.108;2023-09-30T00:10:18;99776.88;;;13.56;62.14
21960;BME280;11144;43.030;25.108;2023-09-30T00:11:52;99793.00;;;13.67;61.89
21960;BME280;11144;43.030;25.108;2023-09-30T00:13:27;99785.50;;;13.71;61.73
21960;BME280;11144;43.030;25.108;2023-09-30T00:15:00;99781.84;;;13.72;62.03
21960;BME280;11144;43.030;25.108;2023-09-30T00:16:32;99786.97;;;13.73;62.20
21960;BME280;11144;43.030;25.108;2023-09-30T00:18:06;99791.22;;;13.74;62.01
21960;BME280;11144;43.030;25.108;2023-09-30T00:19:39;99801.75;;;13.74;61.68
21960;BME280;11144;43.030;25.108;2023-09-30T00:21:12;99791.97;;;13.68;61.79
21960;BME280;11144;43.030;25.108;2023-09-30T00:22:46;99786.59;;;13.55;62.37
21960;BME280;11144;43.030;25.108;2023-09-30T00:24:19;99790.22;;;13.54;63.04
21960;BME280;11144;43.030;25.108;2023-09-30T00:25:52;99798.13;;;13.54;62.63
21960;BME280;11144;43.030;25.108;2023-09-30T00:27:25;99794.06;;;13.52;62.91
21960;BME280;11144;43.030;25.108;2023-09-30T00:28:58;99791.59;;;13.50;62.79
21960;BME280;11144;43.030;25.108;2023-09-30T00:30:32;99774.28;;;13.41;62.64
21960;BME280;11144;43.030;25.108;2023-09-30T00:32:04;99793.41;;;13.50;62.74
21960;BME280;11144;43.030;25.108;2023-09-30T00:33:38;99795.06;;;13.51;63.30
21960;BME280;11144;43.030;25.108;2023-09-30T00:35:10;99794.78;;;13.46;62.96
21960;BME280;11144;43.030;25.108;2023-09-30T00:36:43;99792.63;;;13.49;62.80
21960;BME280;11144;43.030;25.108;2023-09-30T00:38:17;99797.25;;;13.47;62.77
21960;BME280;11144;43.030;25.108;2023-09-30T00:39:51;99801.25;;;13.43;63.06
21960;BME280;11144;43.030;25.108;2023-09-30T00:41:24;99796.75;;;13.37;62.97
21960;BME280;11144;43.030;25.108;2023-09-30T00:42:58;99792.44;;;13.29;62.86
21960;BME280;11144;43.030;25.108;2023-09-30T00:44:31;99796.53;;;13.17;63.33
21960;BME280;11144;43.030;25.108;2023-09-30T00:46:17;99783.06;;;12.91;64.37
21960;BME280;11144;43.030;25.108;2023-09-30T00:47:54;99793.13;;;12.88;63.49
21960;BME280;11144;43.030;25.108;2023-09-30T00:49:29;99795.59;;;12.89;63.79
21960;BME280;11144;43.030;25.108;2023-09-30T00:51:02;99797.59;;;12.87;63.96
21960;BME280;11144;43.030;25.108;2023-09-30T00:52:36;99803.00;;;12.86;63.63
21960;BME280;11144;43.030;25.108;2023-09-30T00:54:12;99796.50;;;12.82;64.08
21960;BME280;11144;43.030;25.108;2023-09-30T00:55:45;99790.97;;;12.77;64.14
21960;BME280;11144;43.030;25.108;2023-09-30T00:57:19;99786.16;;;12.80;64.36
21960;BME280;11144;43.030;25.108;2023-09-30T00:58:54;99797.31;;;12.82;63.94
21960;BME280;11144;43.030;25.108;2023-09-30T01:00:26;99792.25;;;12.81;64.32
21960;BME280;11144;43.030;25.108;2023-09-30T01:02:00;99793.88;;;12.82;64.21
21960;BME280;11144;43.030;25.108;2023-09-30T01:03:33;99791.53;;;12.72;63.95
21960;BME280;11144;43.030;25.108;2023-09-30T01:05:08;99794.97;;;12.73;64.21
21960;BME280;11144;43.030;25.108;2023-09-30T01:06:40;99794.31;;;12.71;64.23
21960;BME280;11144;43.030;25.108;2023-09-30T01:08:14;99792.53;;;12.71;64.35
21960;BME280;11144;43.030;25.108;2023-09-30T01:09:49;99786.81;;;12.68;64.34
21960;BME280;11144;43.030;25.108;2023-09-30T01:11:24;99795.34;;;12.70;64.54
21960;BME280;11144;43.030;25.108;2023-09-30T01:12:56;99793.06;;;12.67;64.51
21960;BME280;11144;43.030;25.108;2023-09-30T01:14:30;99794.88;;;12.66;64.63
21960;BME280;11144;43.030;25.108;2023-09-30T01:16:04;99788.78;;;12.66;64.57
21960;BME280;11144;43.030;25.108;2023-09-30T01:17:38;99794.25;;;12.64;64.86
21960;BME280;11144;43.030;25.108;2023-09-30T01:19:10;99791.63;;;12.64;64.74
21960;BME280;11144;43.030;25.108;2023-09-30T01:20:43;99793.63;;;12.62;64.63
21960;BME280;11144;43.030;25.108;2023-09-30T01:22:17;99787.72;;;12.60;64.72
21960;BME280;11144;43.030;25.108;2023-09-30T01:23:50;99789.25;;;12.54;65.13
21960;BME280;11144;43.030;25.108;2023-09-30T01:25:23;99796.25;;;12.47;65.41
21960;BME280;11144;43.030;25.108;2023-09-30T01:26:57;99799.44;;;12.43;65.04
21960;BME280;11144;43.030;25.108;2023-09-30T01:28:31;99788.44;;;12.39;65.23
21960;BME280;11144;43.030;25.108;2023-09-30T01:30:05;99800.22;;;12.43;65.19
21960;BME280;11144;43.030;25.108;2023-09-30T01:31:38;99792.91;;;12.39;65.37
21960;BME280;11144;43.030;25.108;2023-09-30T01:33:11;99801.78;;;12.38;65.42
21960;BME280;11144;43.030;25.108;2023-09-30T01:34:44;99792.25;;;12.37;65.77
21960;BME280;11144;43.030;25.108;2023-09-30T01:36:17;99798.97;;;12.39;65.84
21960;BME280;11144;43.030;25.108;2023-09-30T01:37:51;99794.09;;;12.36;65.74
21960;BME280;11144;43.030;25.108;2023-09-30T01:39:24;99794.97;;;12.29;65.75
21960;BME280;11144;43.030;25.108;2023-09-30T01:40:56;99792.88;;;12.24;65.63
21960;BME280;11144;43.030;25.108;2023-09-30T01:42:32;99802.31;;;12.19;66.17
21960;BME280;11144;43.030;25.108;2023-09-30T01:44:07;99794.06;;;12.07;66.34
21960;BME280;11144;43.030;25.108;2023-09-30T01:45:42;99797.66;;;12.06;66.11
21960;BME280;11144;43.030;25.108;2023-09-30T01:47:16;99794.41;;;12.04;66.61
21960;BME280;11144;43.030;25.108;2023-09-30T01:48:48;99801.34;;;11.97;66.60
21960;BME280;11144;43.030;25.108;2023-09-30T01:50:22;99795.94;;;11.99;66.85
21960;BME280;11144;43.030;25.108;2023-09-30T01:51:55;99792.94;;;12.02;66.71
21960;BME280;11144;43.030;25.108;2023-09-30T01:53:31;99778.44;;;11.91;66.72
21960;BME280;11144;43.030;25.108;2023-09-30T01:55:04;99797.50;;;12.08;66.56
21960;BME280;11144;43.030;25.108;2023-09-30T01:56:37;99781.34;;;11.96;66.42
21960;BME280;11144;43.030;25.108;2023-09-30T01:58:10;99793.75;;;12.02;66.53
21960;BME280;11144;43.030;25.108;2023-09-30T01:59:43;99782.53;;;11.94;66.44
21960;BME280;11144;43.030;25.108;2023-09-30T02:01:17;99788.59;;;11.94;66.47
21960;BME280;11144;43.030;25.108;2023-09-30T02:02:49;99781.25;;;11.90;66.78
21960;BME280;11144;43.030;25.108;2023-09-30T02:04:22;99780.78;;;11.86;66.41
21960;BME280;11144;43.030;25.108;2023-09-30T02:05:57;99775.41;;;11.79;66.71
21960;BME280;11144;43.030;25.108;2023-09-30T02:07:30;99783.59;;;11.84;66.81
21960;BME280;11144;43.030;25.108;2023-09-30T02:09:05;99789.47;;;11.87;66.63
21960;BME280;11144;43.030;25.108;2023-09-30T02:10:40;99785.69;;;11.89;66.92
21960;BME280;11144;43.030;25.108;2023-09-30T02:12:13;99788.94;;;11.91;66.99
21960;BME280;11144;43.030;25.108;2023-09-30T02:13:46;99785.50;;;11.91;66.97
21960;BME280;11144;43.030;25.108;2023-09-30T02:15:19;99784.84;;;11.89;67.08
21960;BME280;11144;43.030;25.108;2023-09-30T02:16:53;99788.31;;;11.89;67.03
21960;BME280;11144;43.030;25.108;2023-09-30T02:18:27;99789.47;;;11.87;66.96
21960;BME280;11144;43.030;25.108;2023-09-30T02:19:59;99790.00;;;11.82;66.88
21960;BME280;11144;43.030;25.108;2023-09-30T02:21:37;99789.75;;;11.77;67.31
21960;BME280;11144;43.030;25.108;2023-09-30T02:23:11;99786.63;;;11.73;67.48
21960;BME280;11144;43.030;25.108;2023-09-30T02:24:44;99777.97;;;11.65;67.46
21960;BME280;11144;43.030;25.108;2023-09-30T02:26:18;99789.19;;;11.59;67.86
21960;BME280;11144;43.030;25.108;2023-09-30T02:27:50;99762.84;;;11.30;67.93
21960;BME280;11144;43.030;25.108;2023-09-30T02:29:24;99789.38;;;11.35;67.85
21960;BME280;11144;43.030;25.108;2023-09-30T02:30:56;99789.91;;;11.30;67.68
21960;BME280;11144;43.030;25.108;2023-09-30T02:32:29;99784.34;;;11.25;68.11
21960;BME280;11144;43.030;25.108;2023-09-30T02:34:02;99789.28;;;11.20;67.91
21960;BME280;11144;43.030;25.108;2023-09-30T02:35:37;99782.44;;;11.19;68.18
21960;BME280;11144;43.030;25.108;2023-09-30T02:37:10;99775.06;;;11.15;67.52
21960;BME280;11144;43.030;25.108;2023-09-30T02:38:44;99775.34;;;11.20;67.81
21960;BME280;11144;43.030;25.108;2023-09-30T02:40:19;99779.16;;;11.17;68.16
21960;BME280;11144;43.030;25.108;2023-09-30T02:41:56;99775.91;;;11.15;68.26
21960;BME280;11144;43.030;25.108;2023-09-30T02:43:29;99782.31;;;11.13;68.21
21960;BME280;11144;43.030;25.108;2023-09-30T02:45:03;99781.66;;;11.10;68.12
21960;BME280;11144;43.030;25.108;2023-09-30T02:46:35;99777.22;;;11.11;68.31
21960;BME280;11144;43.030;25.108;2023-09-30T02:48:10;99783.09;;;11.13;68.67
21960;BME280;11144;43.030;25.108;2023-09-30T02:49:43;99778.56;;;11.07;68.47
21960;BME280;11144;43.030;25.108;2023-09-30T02:51:16;99784.28;;;11.10;68.58
21960;BME280;11144;43.030;25.108;2023-09-30T02:52:49;99782.63;;;11.09;68.48
21960;BME280;11144;43.030;25.108;2023-09-30T02:54:22;99785.91;;;11.11;68.45
21960;BME280;11144;43.030;25.108;2023-09-30T02:55:56;99783.28;;;11.11;68.18
21960;BME280;11144;43.030;25.108;2023-09-30T02:57:32;99786.53;;;11.13;68.04
21960;BME280;11144;43.030;25.108;2023-09-30T02:59:05;99778.84;;;11.12;67.99
21960;BME280;11144;43.030;25.108;2023-09-30T03:00:39;99783.59;;;11.17;68.28
21960;BME280;11144;43.030;25.108;2023-09-30T03:02:14;99777.34;;;11.18;68.09
21960;BME280;11144;43.030;25.108;2023-09-30T03:03:47;99780.97;;;11.17;67.80
21960;BME280;11144;43.030;25.108;2023-09-30T03:05:22;99769.53;;;11.09;68.20
21960;BME280;11144;43.030;25.108;2023-09-30T03:06:55;99788.84;;;11.17;67.94
21960;BME280;11144;43.030;25.108;2023-09-30T03:08:29;99765.13;;;11.02;68.06
21960;BME280;11144;43.030;25.108;2023-09-30T03:10:02;99780.66;;;11.11;68.14
21960;BME280;11144;43.030;25.108;2023-09-30T03:11:41;99781.34;;;11.05;68.50
21960;BME280;11144;43.030;25.108;2023-09-30T03:13:14;99785.47;;;11.00;68.21
21960;BME280;11144;43.030;25.108;2023-09-30T03:14:47;99786.16;;;10.94;68.67
21960;BME280;11144;43.030;25.108;2023-09-30T03:16:20;99759.38;;;10.76;68.70
21960;BME280;11144;43.030;25.108;2023-09-30T03:17:53;99789.81;;;10.93;68.15
21960;BME280;11144;43.030;25.108;2023-09-30T03:19:27;99789.81;;;10.93;68.69
21960;BME280;11144;43.030;25.108;2023-09-30T03:21:01;99797.34;;;10.88;68.83
21960;BME280;11144;43.030;25.108;2023-09-30T03:22:41;99781.19;;;10.76;68.76
21960;BME280;11144;43.030;25.108;2023-09-30T03:24:14;99797.38;;;10.80;68.84
21960;BME280;11144;43.030;25.108;2023-09-30T03:25:47;99799.03;;;10.81;69.18
21960;BME280;11144;43.030;25.108;2023-09-30T03:27:21;99794.94;;;10.78;69.17
21960;BME280;11144;43.030;25.108;2023-09-30T03:28:55;99789.56;;;10.72;69.22
21960;BME280;11144;43.030;25.108;2023-09-30T03:30:27;99795.13;;;10.69;69.26
21960;BME280;11144;43.030;25.108;2023-09-30T03:32:01;99801.38;;;10.68;69.73
21960;BME280;11144;43.030;25.108;2023-09-30T03:33:34;99791.06;;;10.66;69.78
21960;BME280;11144;43.030;25.108;2023-09-30T03:35:08;99792.03;;;10.65;69.34
21960;BME280;11144;43.030;25.108;2023-09-30T03:36:42;99787.13;;;10.62;69.41
21960;BME280;11144;43.030;25.108;2023-09-30T03:38:16;99796.78;;;10.70;69.51
21960;BME280;11144;43.030;25.108;2023-09-30T03:39:50;99780.59;;;10.66;69.27
21960;BME280;11144;43.030;25.108;2023-09-30T03:41:22;99788.97;;;10.62;69.29
21960;BME280;11144;43.030;25.108;2023-09-30T03:42:57;99802.72;;;10.64;69.29
21960;BME280;11144;43.030;25.108;2023-09-30T03:44:29;99793.84;;;10.65;69.41
21960;BME280;11144;43.030;25.108;2023-09-30T03:46:03;99801.56;;;10.66;69.69
21960;BME280;11144;43.030;25.108;2023-09-30T03:47:36;99782.06;;;10.61;69.40
21960;BME280;11144;43.030;25.108;2023-09-30T03:49:10;99789.09;;;10.68;69.48
21960;BME280;11144;43.030;25.108;2023-09-30T03:50:42;99789.75;;;10.70;69.42
21960;BME280;11144;43.030;25.108;2023-09-30T03:52:16;99785.47;;;10.69;69.70
21960;BME280;11144;43.030;25.108;2023-09-30T03:53:49;99779.25;;;10.70;69.46
21960;BME280;11144;43.030;25.108;2023-09-30T03:55:23;99784.13;;;10.73;69.54
21960;BME280;11144;43.030;25.108;2023-09-30T03:56:55;99785.59;;;10.76;69.38
21960;BME280;11144;43.030;25.108;2023-09-30T03:58:30;99796.28;;;10.74;69.44
21960;BME280;11144;43.030;25.108;2023-09-30T04:00:03;99797.25;;;10.73;69.58
21960;BME280;11144;43.030;25.108;2023-09-30T04:01:44;99793.97;;;10.71;69.53
21960;BME280;11144;43.030;25.108;2023-09-30T04:03:16;99797.09;;;10.67;69.32
21960;BME280;11144;43.030;25.108;2023-09-30T04:04:49;99791.59;;;10.62;69.36
21960;BME280;11144;43.030;25.108;2023-09-30T04:06:25;99795.00;;;10.62;69.60
21960;BME280;11144;43.030;25.108;2023-09-30T04:08:01;99798.31;;;10.56;69.68
21960;BME280;11144;43.030;25.108;2023-09-30T04:09:33;99800.28;;;10.54;69.67
21960;BME280;11144;43.030;25.108;2023-09-30T04:11:08;99795.22;;;10.53;69.82
21960;BME280;11144;43.030;25.108;2023-09-30T04:12:42;99801.09;;;10.47;70.37
21960;BME280;11144;43.030;25.108;2023-09-30T04:14:17;99798.66;;;10.45;70.30
21960;BME280;11144;43.030;25.108;2023-09-30T04:15:49;99797.38;;;10.41;70.36
21960;BME280;11144;43.030;25.108;2023-09-30T04:17:22;99803.59;;;10.40;70.70
21960;BME280;11144;43.030;25.108;2023-09-30T04:18:55;99804.59;;;10.39;70.67
21960;BME280;11144;43.030;25.108;2023-09-30T04:20:28;99809.34;;;10.44;70.47
21960;BME280;11144;43.030;25.108;2023-09-30T04:22:01;99804.09;;;10.44;70.33
21960;BME280;11144;43.030;25.108;2023-09-30T04:23:35;99799.81;;;10.43;69.93
21960;BME280;11144;43.030;25.108;2023-09-30T04:25:09;99813.78;;;10.35;70.47
21960;BME280;11144;43.030;25.108;2023-09-30T04:26:42;99817.03;;;10.37;70.59
21960;BME280;11144;43.030;25.108;2023-09-30T04:28:15;99815.41;;;10.36;70.21
21960;BME280;11144;43.030;25.108;2023-09-30T04:29:53;99813.78;;;10.35;70.22
21960;BME280;11144;43.030;25.108;2023-09-30T04:31:25;99808.88;;;10.32;70.52
21960;BME280;11144;43.030;25.108;2023-09-30T04:33:00;99819.34;;;10.32;70.40
21960;BME280;11144;43.030;25.108;2023-09-30T04:34:33;99820.16;;;10.32;70.64
21960;BME280;11144;43.030;25.108;2023-09-30T04:36:08;99819.16;;;10.33;70.61
21960;BME280;11144;43.030;25.108;2023-09-30T04:37:43;99816.06;;;10.30;70.38
21960;BME280;11144;43.030;25.108;2023-09-30T04:39:15;99802.50;;;10.26;70.59
21960;BME280;11144;43.030;25.108;2023-09-30T04:40:49;99828.31;;;10.46;70.21
21960;BME280;11144;43.030;25.108;2023-09-30T04:42:23;99823.56;;;10.49;70.64
21960;BME280;11144;43.030;25.108;2023-09-30T04:43:57;99815.69;;;10.49;70.47
21960;BME280;11144;43.030;25.108;2023-09-30T04:45:31;99825.66;;;10.54;70.42
21960;BME280;11144;43.030;25.108;2023-09-30T04:47:05;99821.56;;;10.51;70.55
21960;BME280;11144;43.030;25.108;2023-09-30T04:48:37;99827.47;;;10.53;70.94
21960;BME280;11144;43.030;25.108;2023-09-30T04:50:11;99823.53;;;10.57;70.68
21960;BME280;11144;43.030;25.108;2023-09-30T04:51:48;99808.97;;;10.55;70.67
21960;BME280;11144;43.030;25.108;2023-09-30T04:53:22;99828.44;;;10.68;70.59
21960;BME280;11144;43.030;25.108;2023-09-30T04:54:55;99831.03;;;10.68;70.38
21960;BME280;11144;43.030;25.108;2023-09-30T04:56:29;99835.13;;;10.71;70.56
21960;BME280;11144;43.030;25.108;2023-09-30T04:58:01;99826.72;;;10.75;70.72
21960;BME280;11144;43.030;25.108;2023-09-30T04:59:36;99835.06;;;10.87;70.70
21960;BME280;11144;43.030;25.108;2023-09-30T05:01:10;99830.06;;;11.00;70.68
21960;BME280;11144;43.030;25.108;2023-09-30T05:02:44;99832.44;;;11.18;70.82
21960;BME280;11144;43.030;25.108;2023-09-30T05:04:17;99827.22;;;11.40;70.59
21960;BME280;11144;43.030;25.108;2023-09-30T05:05:51;99832.31;;;11.64;70.54
21960;BME280;11144;43.030;25.108;2023-09-30T05:07:25;99833.69;;;11.83;70.03
21960;BME280;11144;43.030;25.108;2023-09-30T05:09:00;99827.53;;;11.91;70.24
21960;BME280;11144;43.030;25.108;2023-09-30T05:10:33;99828.66;;;12.11;70.13
21960;BME280;11144;43.030;25.108;2023-09-30T05:12:06;99835.78;;;12.39;69.85
21960;BME280;11144;43.030;25.108;2023-09-30T05:13:38;99825.25;;;12.69;69.61
21960;BME280;11144;43.030;25.108;2023-09-30T05:15:12;99816.88;;;12.94;68.64
21960;BME280;11144;43.030;25.108;2023-09-30T05:16:46;99826.28;;;13.32;68.29
21960;BME280;11144;43.030;25.108;2023-09-30T05:18:20;99827.00;;;13.62;67.36
21960;BME280;11144;43.030;25.108;2023-09-30T05:19:52;99817.56;;;13.74;67.03
21960;BME280;11144;43.030;25.108;2023-09-30T05:21:26;99832.41;;;14.03;66.76
21960;BME280;11144;43.030;25.108;2023-09-30T05:22:59;99823.88;;;14.29;65.97
21960;BME280;11144;43.030;25.108;2023-09-30T05:24:32;99824.88;;;14.49;65.57
21960;BME280;11144;43.030;25.108;2023-09-30T05:26:07;99817.06;;;14.68;65.13
21960;BME280;11144;43.030;25.108;2023-09-30T05:27:39;99833.38;;;14.92;64.51
21960;BME280;11144;43.030;25.108;2023-09-30T05:29:12;99826.97;;;15.14;64.19
21960;BME280;11144;43.030;25.108;2023-09-30T05:30:45;99823.59;;;15.33;64.62
21960;BME280;11144;43.030;25.108;2023-09-30T05:32:21;99828.13;;;15.45;64.82
21960;BME280;11144;43.030;25.108;2023-09-30T05:33:54;99819.38;;;15.52;64.28
21960;BME280;11144;43.030;25.108;2023-09-30T05:35:29;99832.84;;;15.76;63.12
21960;BME280;11144;43.030;25.108;2023-09-30T05:37:04;99831.25;;;16.08;62.88
21960;BME280;11144;43.030;25.108;2023-09-30T05:38:36;99826.13;;;16.33;62.00
21960;BME280;11144;43.030;25.108;2023-09-30T05:40:10;99834.06;;;16.52;62.19
21960;BME280;11144;43.030;25.108;2023-09-30T05:41:52;99833.59;;;16.68;61.15
21960;BME280;11144;43.030;25.108;2023-09-30T05:43:27;99844.78;;;16.83;60.60
21960;BME280;11144;43.030;25.108;2023-09-30T05:45:01;99840.44;;;16.95;61.06
21960;BME280;11144;43.030;25.108;2023-09-30T05:46:34;99841.81;;;17.11;59.46
21960;BME280;11144;43.030;25.108;2023-09-30T05:48:09;99839.13;;;17.18;59.91
21960;BME280;11144;43.030;25.108;2023-09-30T05:49:42;99839.03;;;17.37;58.50
21960;BME280;11144;43.030;25.108;2023-09-30T05:51:15;99843.47;;;17.56;58.74
21960;BME280;11144;43.030;25.108;2023-09-30T05:52:48;99846.53;;;17.85;57.74
21960;BME280;11144;43.030;25.108;2023-09-30T05:54:22;99845.28;;;18.12;57.13
21960;BME280;11144;43.030;25.108;2023-09-30T05:55:55;99834.03;;;18.34;56.70
21960;BME280;11144;43.030;25.108;2023-09-30T05:57:28;99843.41;;;18.62;56.13
21960;BME280;11144;43.030;25.108;2023-09-30T05:59:00;99837.81;;;18.70;55.52
21960;BME280;11144;43.030;25.108;2023-09-30T06:00:36;99849.09;;;18.83;54.85
21960;BME280;11144;43.030;25.108;2023-09-30T06:02:09;99842.69;;;18.73;55.23
21960;BME280;11144;43.030;25.108;2023-09-30T06:03:46;99844.22;;;18.62;54.43
21960;BME280;11144;43.030;25.108;2023-09-30T06:05:20;99847.47;;;18.64;53.98
21960;BME280;11144;43.030;25.108;2023-09-30T06:06:54;99848.50;;;18.81;53.43
21960;BME280;11144;43.030;25.108;2023-09-30T06:08:27;99833.22;;;18.77;53.66
21960;BME280;11144;43.030;25.108;2023-09-30T06:09:59;99837.44;;;18.84;54.32
21960;BME280;11144;43.030;25.108;2023-09-30T06:11:35;99846.34;;;19.08;54.17
21960;BME280;11144;43.030;25.108;2023-09-30T06:13:08;99845.06;;;19.29;53.20
21960;BME280;11144;43.030;25.108;2023-09-30T06:14:41;99846.59;;;19.54;52.48
21960;BME280;11144;43.030;25.108;2023-09-30T06:16:14;99844.34;;;19.81;52.01
21960;BME280;11144;43.030;25.108;2023-09-30T06:17:49;99855.25;;;20.03;51.73
21960;BME280;11144;43.030;25.108;2023-09-30T06:19:22;99856.09;;;20.15;51.99
21960;BME280;11144;43.030;25.108;2023-09-30T06:20:57;99854.34;;;20.20;51.75
21960;BME280;11144;43.030;25.108;2023-09-30T06:22:31;99851.75;;;20.32;51.31
21960;BME280;11144;43.030;25.108;2023-09-30T06:24:03;99849.53;;;20.52;51.59
21960;BME280;11144;43.030;25.108;2023-09-30T06:25:37;99846.88;;;20.64;51.37
21960;BME280;11144;43.030;25.108;2023-09-30T06:27:12;99851.00;;;20.71;50.96
21960;BME280;11144;43.030;25.108;2023-09-30T06:28:45;99852.41;;;20.85;50.11
21960;BME280;11144;43.030;25.108;2023-09-30T06:30:20;99858.88;;;20.89;49.58
21960;BME280;11144;43.030;25.108;2023-09-30T06:31:53;99849.59;;;21.03;50.14
21960;BME280;11144;43.030;25.108;2023-09-30T06:33:26;99849.06;;;21.29;50.01
21960;BME280;11144;43.030;25.108;2023-09-30T06:35:04;99850.44;;;21.60;49.67
21960;BME280;11144;43.030;25.108;2023-09-30T06:36:38;99849.75;;;21.81;48.45
21960;BME280;11144;43.030;25.108;2023-09-30T06:38:12;99852.75;;;22.01;47.83
21960;BME280;11144;43.030;25.108;2023-09-30T06:39:45;99844.13;;;22.11;46.05
21960;BME280;11144;43.030;25.108;2023-09-30T06:41:18;99845.09;;;22.05;46.74
21960;BME280;11144;43.030;25.108;2023-09-30T06:42:52;99848.25;;;22.19;47.34
21960;BME280;11144;43.030;25.108;2023-09-30T06:44:24;99835.72;;;22.19;46.22
21960;BME280;11144;43.030;25.108;2023-09-30T06:45:57;99855.84;;;22.27;46.67
21960;BME280;11144;43.030;25.108;2023-09-30T06:47:30;99849.69;;;22.43;45.89
21960;BME280;11144;43.030;25.108;2023-09-30T06:49:05;99851.97;;;22.18;45.15
21960;BME280;11144;43.030;25.108;2023-09-30T06:50:43;99848.41;;;22.12;44.65
21960;BME280;11144;43.030;25.108;2023-09-30T06:52:16;99850.25;;;22.28;46.07
21960;BME280;11144;43.030;25.108;2023-09-30T06:53:51;99848.00;;;22.37;45.33
21960;BME280;11144;43.030;25.108;2023-09-30T06:55:25;99853.22;;;22.48;44.13
21960;BME280;11144;43.030;25.108;2023-09-30T06:57:01;99840.59;;;22.44;45.83
21960;BME280;11144;43.030;25.108;2023-09-30T06:58:34;99848.38;;;22.62;45.60
21960;BME280;11144;43.030;25.108;2023-09-30T07:00:08;99840.19;;;22.68;44.01
21960;BME280;11144;43.030;25.108;2023-09-30T07:01:41;99850.13;;;22.95;44.29
21960;BME280;11144;43.030;25.108;2023-09-30T07:03:16;99847.78;;;23.20;42.68
21960;BME280;11144;43.030;25.108;2023-09-30T07:04:49;99848.88;;;23.24;42.87
21960;BME280;11144;43.030;25.108;2023-09-30T07:06:24;99847.97;;;23.13;43.79
21960;BME280;11144;43.030;25.108;2023-09-30T07:07:57;99845.56;;;23.33;43.18
21960;BME280;11144;43.030;25.108;2023-09-30T07:09:30;99851.53;;;23.40;42.06
21960;BME280;11144;43.030;25.108;2023-09-30T07:11:04;99845.47;;;23.28;42.57
21960;BME280;11144;43.030;25.108;2023-09-30T07:12:37;99842.75;;;23.45;43.24
21960;BME280;11144;43.030;25.108;2023-09-30T07:14:12;99850.38;;;23.63;42.17
21960;BME280;11144;43.030;25.108;2023-09-30T07:15:45;99838.22;;;23.77;41.59
21960;BME280;11144;43.030;25.108;2023-09-30T07:17:18;99840.16;;;24.13;41.22
21960;BME280;11144;43.030;25.108;2023-09-30T07:18:51;99844.91;;;24.43;40.91
21960;BME280;11144;43.030;25.108;2023-09-30T07:20:26;99844.78;;;24.65;40.53
21960;BME280;11144;43.030;25.108;2023-09-30T07:21:59;99839.81;;;24.83;40.02
21960;BME280;11144;43.030;25.108;2023-09-30T07:23:36;99846.28;;;24.93;39.95
21960;BME280;11144;43.030;25.108;2023-09-30T07:25:09;99839.06;;;24.98;39.56
21960;BME280;11144;43.030;25.108;2023-09-30T07:26:43;99836.69;;;25.07;39.29
21960;BME280;11144;43.030;25.108;2023-09-30T07:28:15;99836.22;;;25.20;39.02
21960;BME280;11144;43.030;25.108;2023-09-30T07:29:48;99841.06;;;25.38;38.62
21960;BME280;11144;43.030;25.108;2023-09-30T07:31:21;99834.16;;;25.52;38.11
21960;BME280;11144;43.030;25.108;2023-09-30T07:32:55;99846.25;;;25.54;38.36
21960;BME280;11144;43.030;25.108;2023-09-30T07:34:28;99838.22;;;25.59;38.05
21960;BME280;11144;43.030;25.108;2023-09-30T07:36:01;99843.06;;;25.73;38.23
21960;BME280;11144;43.030;25.108;2023-09-30T07:37:36;99831.78;;;25.91;38.26
21960;BME280;11144;43.030;25.108;2023-09-30T07:39:08;99837.13;;;25.96;38.33
21960;BME280;11144;43.030;25.108;2023-09-30T07:40:42;99833.13;;;26.03;37.35
21960;BME280;11144;43.030;25.108;2023-09-30T07:42:15;99832.84;;;26.05;37.15
21960;BME280;11144;43.030;25.108;2023-09-30T07:43:49;99819.44;;;26.10;37.32
21960;BME280;11144;43.030;25.108;2023-09-30T07:45:22;99828.53;;;26.29;36.24
21960;BME280;11144;43.030;25.108;2023-09-30T07:46:55;99832.56;;;25.96;36.90
21960;BME280;11144;43.030;25.108;2023-09-30T07:48:28;99834.72;;;25.74;37.40
21960;BME280;11144;43.030;25.108;2023-09-30T07:50:01;99826.41;;;26.01;36.80
21960;BME280;11144;43.030;25.108;2023-09-30T07:51:35;99824.28;;;26.13;36.73
21960;BME280;11144;43.030;25.108;2023-09-30T07:53:10;99827.50;;;26.10;37.10
21960;BME280;11144;43.030;25.108;2023-09-30T07:54:44;99823.72;;;26.16;36.21
21960;BME280;11144;43.030;25.108;2023-09-30T07:56:16;99827.19;;;26.37;35.83
21960;BME280;11144;43.030;25.108;2023-09-30T07:57:50;99829.03;;;26.61;35.62
21960;BME280;11144;43.030;25.108;2023-09-30T07:59:22;99819.81;;;26.87;35.46
21960;BME280;11144;43.030;25.108;2023-09-30T08:00:55;99822.50;;;26.87;35.06
21960;BME280;11144;43.030;25.108;2023-09-30T08:02:28;99820.88;;;26.91;35.06
21960;BME280;11144;43.030;25.108;2023-09-30T08:04:05;99816.75;;;27.04;35.44
21960;BME280;11144;43.030;25.108;2023-09-30T08:05:39;99820.84;;;26.96;35.42
21960;BME280;11144;43.030;25.108;2023-09-30T08:07:11;99812.78;;;26.91;35.51
21960;BME280;11144;43.030;25.108;2023-09-30T08:08:46;99815.91;;;27.14;35.10
21960;BME280;11144;43.030;25.108;2023-09-30T08:10:19;99815.47;;;26.96;34.76